Fredericksburg, TX

10:56 AM CST on December 18, 2014 (GMT -0600)
Stehling Hill US 87 North | Change Station
CLOSE
Current Station
Personal Weather Station
Location: Fredericksburg, TX
Elevation: 1957 ft
Nearby Weather Stations

Elev 1957 ft 30.33 °N, 98.92 °W | Updated 10 seconds ago

Overcast
Overcast
56.4 °F
Feels Like 56.4 °F
N
0.0
Wind Variable Wind from West
Gusts 2.0 mph

Today
High -- | Low -- °F
--% Chance of Precip.
Yesterday
High -- | Low -- °F
Precip. -- in
7:26 AM 5:37 PM
Waning Crescent, 13% visible
Pressure 30.16 in
Visibility 5.0 miles
Clouds Overcast 200 ft
Dew Point 25 °F
Humidity 29%
Rainfall 0.00 in
Snow Depth Not available.
UV 1 out of 12
Pollen 8.50 out of 12
Air Quality Not available.
Flu Activity Not available.
METAR KT82 181635Z AUTO 27005KT 5SM BR OVC002 13/13 A3016 RMK AO2 T01330131

More Conditions Fewer Conditions

Pressure 30.16 in
Visibility 5.0 miles
Clouds Overcast 200 ft
Dew Point 25 °F
Humidity 29%
Rainfall 0.00 in
Snow Depth Not available.
UV 1 out of 12
Pollen 8.50 out of 12
Air Quality Not available.
Flu Activity Not available.
METAR KT82 181635Z AUTO 27005KT 5SM BR OVC002 13/13 A3016 RMK AO2 T01330131

More Conditions Fewer Conditions

Nowcast | as of 9:00 am CST on December 18, 2014

Through 11 am...patchy light drizzle will continue across south central Texas with little or no measurable rainfall expected. Areas of fog will continue with visibilities generally 1/2 to 2 miles. Some locations will see visibilities of 1/4 mile or less. Motorists should exercise caution and slow down in areas of fog as visibilities may drop rapidly.

×

10-Day Weather Forecast

Almanac

Astronomy

Dec. 18, 2014 Rise Set
Actual Time
Civil Twilight
Nautical Twilight
Astronomical Twilight
Moon
Length of Visible Light
Length of Day
Tomorrow will be .
, % of the Moon is Illuminated

Today's Extremes

State Highs State Lows

Community

WunderPhotos

Upload Photos

1,778,960 photos uploaded!

WunderBlogs® & News

Nearby

Air Quality

  Air Quality AQ Index Pollutant
Not available.

Snow Depth

Station Depth Elevation

Earthquake Activity

City Distance Mag. Time & Date
Minimum magnitude displayed is 2.5.

Coastal Water Temperatures

Place Temperature

Nearby Weather Stations